sensor_id;sensor_type;location;lat;lon;timestamp;P1;durP1;ratioP1;P2;durP2;ratioP2
20207;SDS011;10263;48.716;8.760;2023-05-14T00:01:18;6.27;;;5.67;;
20207;SDS011;10263;48.716;8.760;2023-05-14T00:03:45;6.70;;;6.00;;
20207;SDS011;10263;48.716;8.760;2023-05-14T00:06:12;6.53;;;5.97;;
20207;SDS011;10263;48.716;8.760;2023-05-14T00:08:40;6.57;;;5.97;;
20207;SDS011;10263;48.716;8.760;2023-05-14T00:11:06;6.77;;;6.07;;
20207;SDS011;10263;48.716;8.760;2023-05-14T00:13:34;7.27;;;5.93;;
20207;SDS011;10263;48.716;8.760;2023-05-14T00:16:01;7.30;;;5.97;;
20207;SDS011;10263;48.716;8.760;2023-05-14T00:18:29;7.37;;;6.10;;
20207;SDS011;10263;48.716;8.760;2023-05-14T00:20:56;6.27;;;5.73;;
20207;SDS011;10263;48.716;8.760;2023-05-14T00:23:23;6.57;;;5.97;;
20207;SDS011;10263;48.716;8.760;2023-05-14T00:25:50;7.53;;;5.90;;
20207;SDS011;10263;48.716;8.760;2023-05-14T00:28:17;6.27;;;5.67;;
20207;SDS011;10263;48.716;8.760;2023-05-14T00:30:43;6.57;;;5.97;;
20207;SDS011;10263;48.716;8.760;2023-05-14T00:33:10;6.63;;;5.93;;
20207;SDS011;10263;48.716;8.760;2023-05-14T00:35:39;7.57;;;6.37;;
20207;SDS011;10263;48.716;8.760;2023-05-14T00:38:06;7.87;;;5.77;;
20207;SDS011;10263;48.716;8.760;2023-05-14T00:40:32;7.13;;;6.03;;
20207;SDS011;10263;48.716;8.760;2023-05-14T00:42:59;9.00;;;6.13;;
20207;SDS011;10263;48.716;8.760;2023-05-14T00:45:26;6.43;;;5.63;;
20207;SDS011;10263;48.716;8.760;2023-05-14T00:47:53;6.60;;;5.60;;
20207;SDS011;10263;48.716;8.760;2023-05-14T00:50:20;7.40;;;5.70;;
20207;SDS011;10263;48.716;8.760;2023-05-14T00:52:49;7.00;;;6.33;;
20207;SDS011;10263;48.716;8.760;2023-05-14T00:55:16;7.13;;;6.20;;
20207;SDS011;10263;48.716;8.760;2023-05-14T00:57:44;6.37;;;5.67;;
20207;SDS011;10263;48.716;8.760;2023-05-14T01:00:11;6.87;;;6.27;;
20207;SDS011;10263;48.716;8.760;2023-05-14T01:02:38;6.73;;;6.03;;
20207;SDS011;10263;48.716;8.760;2023-05-14T01:05:05;6.80;;;6.03;;
20207;SDS011;10263;48.716;8.760;2023-05-14T01:07:35;6.40;;;5.80;;
20207;SDS011;10263;48.716;8.760;2023-05-14T01:10:10;6.07;;;5.50;;
20207;SDS011;10263;48.716;8.760;2023-05-14T01:12:44;6.23;;;5.63;;
20207;SDS011;10263;48.716;8.760;2023-05-14T01:15:18;8.00;;;5.60;;
20207;SDS011;10263;48.716;8.760;2023-05-14T01:17:49;8.33;;;5.70;;
20207;SDS011;10263;48.716;8.760;2023-05-14T01:20:19;5.47;;;4.93;;
20207;SDS011;10263;48.716;8.760;2023-05-14T01:22:48;6.57;;;5.90;;
20207;SDS011;10263;48.716;8.760;2023-05-14T01:25:15;5.90;;;5.30;;
20207;SDS011;10263;48.716;8.760;2023-05-14T01:27:43;10.07;;;5.93;;
20207;SDS011;10263;48.716;8.760;2023-05-14T01:30:18;6.10;;;5.50;;
20207;SDS011;10263;48.716;8.760;2023-05-14T01:32:50;5.90;;;5.40;;
20207;SDS011;10263;48.716;8.760;2023-05-14T01:35:19;6.10;;;5.50;;
20207;SDS011;10263;48.716;8.760;2023-05-14T01:37:51;5.67;;;5.17;;
20207;SDS011;10263;48.716;8.760;2023-05-14T01:40:20;5.93;;;5.33;;
20207;SDS011;10263;48.716;8.760;2023-05-14T01:42:48;7.03;;;6.33;;
20207;SDS011;10263;48.716;8.760;2023-05-14T01:45:16;8.63;;;6.50;;
20207;SDS011;10263;48.716;8.760;2023-05-14T01:47:45;7.77;;;5.87;;
20207;SDS011;10263;48.716;8.760;2023-05-14T01:50:12;8.77;;;6.40;;
20207;SDS011;10263;48.716;8.760;2023-05-14T01:52:39;6.27;;;5.67;;
20207;SDS011;10263;48.716;8.760;2023-05-14T01:55:07;6.20;;;5.60;;
20207;SDS011;10263;48.716;8.760;2023-05-14T01:57:35;6.53;;;5.93;;
20207;SDS011;10263;48.716;8.760;2023-05-14T02:00:02;5.87;;;5.37;;
20207;SDS011;10263;48.716;8.760;2023-05-14T02:02:39;6.17;;;5.57;;
20207;SDS011;10263;48.716;8.760;2023-05-14T02:05:07;10.80;;;7.83;;
20207;SDS011;10263;48.716;8.760;2023-05-14T02:07:35;6.23;;;5.63;;
20207;SDS011;10263;48.716;8.760;2023-05-14T02:10:02;6.10;;;5.60;;
20207;SDS011;10263;48.716;8.760;2023-05-14T02:12:31;5.47;;;4.97;;
20207;SDS011;10263;48.716;8.760;2023-05-14T02:14:57;6.07;;;5.57;;
20207;SDS011;10263;48.716;8.760;2023-05-14T02:17:26;6.10;;;5.33;;
20207;SDS011;10263;48.716;8.760;2023-05-14T02:19:53;6.23;;;5.63;;
20207;SDS011;10263;48.716;8.760;2023-05-14T02:22:19;5.87;;;5.07;;
20207;SDS011;10263;48.716;8.760;2023-05-14T02:24:46;5.50;;;5.00;;
20207;SDS011;10263;48.716;8.760;2023-05-14T02:27:16;4.80;;;4.30;;
20207;SDS011;10263;48.716;8.760;2023-05-14T02:29:44;4.77;;;4.37;;
20207;SDS011;10263;48.716;8.760;2023-05-14T02:32:12;6.10;;;4.87;;
20207;SDS011;10263;48.716;8.760;2023-05-14T02:34:39;5.70;;;5.17;;
20207;SDS011;10263;48.716;8.760;2023-05-14T02:37:05;5.60;;;5.10;;
20207;SDS011;10263;48.716;8.760;2023-05-14T02:39:32;5.70;;;5.20;;
20207;SDS011;10263;48.716;8.760;2023-05-14T02:41:59;5.53;;;5.00;;
20207;SDS011;10263;48.716;8.760;2023-05-14T02:44:26;6.23;;;5.63;;
20207;SDS011;10263;48.716;8.760;2023-05-14T02:46:54;6.83;;;5.40;;
20207;SDS011;10263;48.716;8.760;2023-05-14T02:49:21;6.93;;;5.73;;
20207;SDS011;10263;48.716;8.760;2023-05-14T02:51:47;6.20;;;5.10;;
20207;SDS011;10263;48.716;8.760;2023-05-14T02:54:14;6.30;;;5.70;;
20207;SDS011;10263;48.716;8.760;2023-05-14T02:56:41;6.17;;;5.57;;
20207;SDS011;10263;48.716;8.760;2023-05-14T02:59:08;6.13;;;5.30;;
20207;SDS011;10263;48.716;8.760;2023-05-14T03:01:35;5.83;;;5.27;;
20207;SDS011;10263;48.716;8.760;2023-05-14T03:04:03;5.57;;;5.07;;
20207;SDS011;10263;48.716;8.760;2023-05-14T03:06:30;6.10;;;5.50;;
20207;SDS011;10263;48.716;8.760;2023-05-14T03:08:56;6.57;;;5.87;;
20207;SDS011;10263;48.716;8.760;2023-05-14T03:11:23;6.27;;;5.40;;
20207;SDS011;10263;48.716;8.760;2023-05-14T03:13:50;5.80;;;5.20;;
20207;SDS011;10263;48.716;8.760;2023-05-14T03:16:17;6.67;;;5.77;;
20207;SDS011;10263;48.716;8.760;2023-05-14T03:18:44;5.90;;;5.33;;
20207;SDS011;10263;48.716;8.760;2023-05-14T03:21:12;5.50;;;5.00;;
20207;SDS011;10263;48.716;8.760;2023-05-14T03:23:39;6.30;;;5.70;;
20207;SDS011;10263;48.716;8.760;2023-05-14T03:26:06;7.10;;;5.57;;
20207;SDS011;10263;48.716;8.760;2023-05-14T03:28:32;6.33;;;5.83;;
20207;SDS011;10263;48.716;8.760;2023-05-14T03:30:59;6.20;;;5.63;;
20207;SDS011;10263;48.716;8.760;2023-05-14T03:33:26;6.93;;;6.23;;
20207;SDS011;10263;48.716;8.760;2023-05-14T03:35:53;7.40;;;6.70;;
20207;SDS011;10263;48.716;8.760;2023-05-14T03:38:21;7.77;;;7.00;;
20207;SDS011;10263;48.716;8.760;2023-05-14T03:40:48;7.50;;;6.70;;
20207;SDS011;10263;48.716;8.760;2023-05-14T03:43:15;8.10;;;7.30;;
20207;SDS011;10263;48.716;8.760;2023-05-14T03:45:42;7.27;;;6.57;;
20207;SDS011;10263;48.716;8.760;2023-05-14T03:48:09;7.67;;;6.97;;
20207;SDS011;10263;48.716;8.760;2023-05-14T03:50:36;6.40;;;5.80;;
20207;SDS011;10263;48.716;8.760;2023-05-14T03:53:04;12.80;;;6.70;;
20207;SDS011;10263;48.716;8.760;2023-05-14T03:55:32;9.70;;;6.93;;
20207;SDS011;10263;48.716;8.760;2023-05-14T03:58:00;10.27;;;7.60;;
20207;SDS011;10263;48.716;8.760;2023-05-14T04:00:26;7.73;;;6.93;;
20207;SDS011;10263;48.716;8.760;2023-05-14T04:02:53;7.40;;;6.70;;
20207;SDS011;10263;48.716;8.760;2023-05-14T04:05:22;8.77;;;6.87;;
20207;SDS011;10263;48.716;8.760;2023-05-14T04:07:49;8.40;;;7.60;;
20207;SDS011;10263;48.716;8.760;2023-05-14T04:10:18;7.67;;;6.87;;
20207;SDS011;10263;48.716;8.760;2023-05-14T04:12:46;8.53;;;7.63;;
20207;SDS011;10263;48.716;8.760;2023-05-14T04:15:13;8.50;;;7.70;;
20207;SDS011;10263;48.716;8.760;2023-05-14T04:17:41;8.47;;;7.67;;
20207;SDS011;10263;48.716;8.760;2023-05-14T04:20:08;12.33;;;7.33;;
20207;SDS011;10263;48.716;8.760;2023-05-14T04:22:35;8.77;;;7.87;;
20207;SDS011;10263;48.716;8.760;2023-05-14T04:25:02;9.73;;;8.63;;
20207;SDS011;10263;48.716;8.760;2023-05-14T04:27:29;8.73;;;7.83;;
20207;SDS011;10263;48.716;8.760;2023-05-14T04:29:57;8.70;;;7.90;;
20207;SDS011;10263;48.716;8.760;2023-05-14T04:32:24;9.73;;;8.53;;
20207;SDS011;10263;48.716;8.760;2023-05-14T04:34:51;12.60;;;7.43;;
20207;SDS011;10263;48.716;8.760;2023-05-14T04:37:17;8.27;;;7.10;;
20207;SDS011;10263;48.716;8.760;2023-05-14T04:39:44;8.73;;;7.63;;
20207;SDS011;10263;48.716;8.760;2023-05-14T04:42:11;8.47;;;7.67;;
20207;SDS011;10263;48.716;8.760;2023-05-14T04:44:38;11.93;;;9.17;;
20207;SDS011;10263;48.716;8.760;2023-05-14T04:47:06;7.93;;;6.93;;
20207;SDS011;10263;48.716;8.760;2023-05-14T04:49:32;8.47;;;7.67;;
20207;SDS011;10263;48.716;8.760;2023-05-14T04:51:59;7.77;;;6.97;;
20207;SDS011;10263;48.716;8.760;2023-05-14T04:54:26;7.80;;;7.10;;
20207;SDS011;10263;48.716;8.760;2023-05-14T04:56:53;8.77;;;7.90;;
20207;SDS011;10263;48.716;8.760;2023-05-14T04:59:20;10.53;;;7.83;;
20207;SDS011;10263;48.716;8.760;2023-05-14T05:01:47;7.63;;;6.90;;
20207;SDS011;10263;48.716;8.760;2023-05-14T05:04:15;7.80;;;7.00;;
20207;SDS011;10263;48.716;8.760;2023-05-14T05:06:42;7.97;;;6.90;;
20207;SDS011;10263;48.716;8.760;2023-05-14T05:09:08;7.57;;;6.77;;
20207;SDS011;10263;48.716;8.760;2023-05-14T05:11:35;8.03;;;6.90;;
20207;SDS011;10263;48.716;8.760;2023-05-14T05:14:02;8.63;;;7.27;;
20207;SDS011;10263;48.716;8.760;2023-05-14T05:16:29;10.10;;;8.10;;
20207;SDS011;10263;48.716;8.760;2023-05-14T05:18:56;8.50;;;7.43;;
20207;SDS011;10263;48.716;8.760;2023-05-14T05:21:24;8.50;;;7.60;;
20207;SDS011;10263;48.716;8.760;2023-05-14T05:23:51;8.67;;;7.70;;
20207;SDS011;10263;48.716;8.760;2023-05-14T05:26:18;7.87;;;7.07;;
20207;SDS011;10263;48.716;8.760;2023-05-14T05:28:46;7.70;;;6.90;;
20207;SDS011;10263;48.716;8.760;2023-05-14T05:31:12;7.63;;;6.83;;
20207;SDS011;10263;48.716;8.760;2023-05-14T05:33:40;7.83;;;7.13;;
20207;SDS011;10263;48.716;8.760;2023-05-14T05:36:07;7.30;;;6.60;;
20207;SDS011;10263;48.716;8.760;2023-05-14T05:38:35;7.93;;;6.60;;
20207;SDS011;10263;48.716;8.760;2023-05-14T05:41:02;7.80;;;7.00;;
20207;SDS011;10263;48.716;8.760;2023-05-14T05:43:29;7.73;;;7.03;;
20207;SDS011;10263;48.716;8.760;2023-05-14T05:45:57;7.80;;;7.10;;
20207;SDS011;10263;48.716;8.760;2023-05-14T05:48:25;8.53;;;7.30;;
20207;SDS011;10263;48.716;8.760;2023-05-14T05:50:52;6.80;;;6.20;;
20207;SDS011;10263;48.716;8.760;2023-05-14T05:53:19;7.00;;;6.30;;
20207;SDS011;10263;48.716;8.760;2023-05-14T05:55:47;7.67;;;6.83;;
20207;SDS011;10263;48.716;8.760;2023-05-14T05:58:15;7.03;;;6.33;;
20207;SDS011;10263;48.716;8.760;2023-05-14T06:00:42;7.17;;;6.47;;
20207;SDS011;10263;48.716;8.760;2023-05-14T06:03:09;7.57;;;6.80;;
20207;SDS011;10263;48.716;8.760;2023-05-14T06:05:36;6.90;;;6.20;;
20207;SDS011;10263;48.716;8.760;2023-05-14T06:08:03;7.63;;;6.93;;
20207;SDS011;10263;48.716;8.760;2023-05-14T06:10:30;7.70;;;6.90;;
20207;SDS011;10263;48.716;8.760;2023-05-14T06:12:59;7.00;;;6.13;;
20207;SDS011;10263;48.716;8.760;2023-05-14T06:15:26;7.03;;;6.33;;
20207;SDS011;10263;48.716;8.760;2023-05-14T06:17:53;9.37;;;6.27;;
20207;SDS011;10263;48.716;8.760;2023-05-14T06:20:20;6.37;;;5.77;;
20207;SDS011;10263;48.716;8.760;2023-05-14T06:22:46;6.10;;;5.50;;
20207;SDS011;10263;48.716;8.760;2023-05-14T06:25:13;7.07;;;6.37;;
20207;SDS011;10263;48.716;8.760;2023-05-14T06:27:40;6.20;;;5.60;;
20207;SDS011;10263;48.716;8.760;2023-05-14T06:30:09;6.50;;;5.90;;
20207;SDS011;10263;48.716;8.760;2023-05-14T06:32:36;6.77;;;6.07;;
20207;SDS011;10263;48.716;8.760;2023-05-14T06:35:03;7.23;;;6.37;;
20207;SDS011;10263;48.716;8.760;2023-05-14T06:37:31;7.03;;;6.30;;
20207;SDS011;10263;48.716;8.760;2023-05-14T06:39:59;8.70;;;6.90;;
20207;SDS011;10263;48.716;8.760;2023-05-14T06:42:29;6.67;;;5.80;;
20207;SDS011;10263;48.716;8.760;2023-05-14T06:44:56;7.07;;;6.37;;
20207;SDS011;10263;48.716;8.760;2023-05-14T06:47:25;7.30;;;6.20;;
20207;SDS011;10263;48.716;8.760;2023-05-14T06:49:51;6.93;;;6.23;;
20207;SDS011;10263;48.716;8.760;2023-05-14T06:52:19;7.10;;;6.40;;
20207;SDS011;10263;48.716;8.760;2023-05-14T06:54:46;6.43;;;5.77;;
20207;SDS011;10263;48.716;8.760;2023-05-14T06:57:13;6.30;;;5.70;;
20207;SDS011;10263;48.716;8.760;2023-05-14T06:59:40;7.20;;;5.83;;
20207;SDS011;10263;48.716;8.760;2023-05-14T07:02:06;6.30;;;5.70;;
20207;SDS011;10263;48.716;8.760;2023-05-14T07:04:34;6.77;;;6.13;;
20207;SDS011;10263;48.716;8.760;2023-05-14T07:07:01;6.27;;;5.67;;
20207;SDS011;10263;48.716;8.760;2023-05-14T07:09:29;6.63;;;6.00;;
20207;SDS011;10263;48.716;8.760;2023-05-14T07:11:56;6.70;;;6.00;;
20207;SDS011;10263;48.716;8.760;2023-05-14T07:14:23;8.07;;;6.23;;
20207;SDS011;10263;48.716;8.760;2023-05-14T07:16:49;9.43;;;6.50;;
20207;SDS011;10263;48.716;8.760;2023-05-14T07:19:16;6.43;;;5.73;;
20207;SDS011;10263;48.716;8.760;2023-05-14T07:21:44;7.57;;;6.70;;
20207;SDS011;10263;48.716;8.760;2023-05-14T07:24:11;6.57;;;5.97;;
20207;SDS011;10263;48.716;8.760;2023-05-14T07:26:38;6.97;;;6.27;;
20207;SDS011;10263;48.716;8.760;2023-05-14T07:29:05;6.70;;;6.07;;
20207;SDS011;10263;48.716;8.760;2023-05-14T07:31:31;6.80;;;6.00;;
20207;SDS011;10263;48.716;8.760;2023-05-14T07:33:58;7.03;;;6.33;;
20207;SDS011;10263;48.716;8.760;2023-05-14T07:36:25;6.70;;;5.72;;
20207;SDS011;10263;48.716;8.760;2023-05-14T07:38:53;6.37;;;5.77;;
20207;SDS011;10263;48.716;8.760;2023-05-14T07:41:20;6.83;;;6.13;;
20207;SDS011;10263;48.716;8.760;2023-05-14T07:43:46;6.25;;;5.68;;
20207;SDS011;10263;48.716;8.760;2023-05-14T07:46:13;8.30;;;6.38;;
20207;SDS011;10263;48.716;8.760;2023-05-14T07:48:40;6.78;;;5.70;;
20207;SDS011;10263;48.716;8.760;2023-05-14T07:51:07;6.70;;;6.07;;
20207;SDS011;10263;48.716;8.760;2023-05-14T07:53:34;6.47;;;5.83;;
20207;SDS011;10263;48.716;8.760;2023-05-14T07:56:02;6.57;;;5.97;;
20207;SDS011;10263;48.716;8.760;2023-05-14T07:58:28;7.87;;;6.50;;
20207;SDS011;10263;48.716;8.760;2023-05-14T08:00:55;8.18;;;5.30;;
20207;SDS011;10263;48.716;8.760;2023-05-14T08:03:22;6.40;;;5.63;;
20207;SDS011;10263;48.716;8.760;2023-05-14T08:05:49;6.73;;;6.03;;
20207;SDS011;10263;48.716;8.760;2023-05-14T08:08:16;6.38;;;5.75;;
20207;SDS011;10263;48.716;8.760;2023-05-14T08:10:43;7.60;;;6.03;;
20207;SDS011;10263;48.716;8.760;2023-05-14T08:13:11;5.78;;;5.28;;
20207;SDS011;10263;48.716;8.760;2023-05-14T08:15:38;5.47;;;4.97;;
20207;SDS011;10263;48.716;8.760;2023-05-14T08:18:05;6.35;;;5.72;;
20207;SDS011;10263;48.716;8.760;2023-05-14T08:20:31;6.30;;;5.70;;
20207;SDS011;10263;48.716;8.760;2023-05-14T08:22:58;5.68;;;5.05;;
20207;SDS011;10263;48.716;8.760;2023-05-14T08:25:25;5.75;;;5.25;;
20207;SDS011;10263;48.716;8.760;2023-05-14T08:27:52;7.60;;;6.60;;
20207;SDS011;10263;48.716;8.760;2023-05-14T08:30:20;6.33;;;5.67;;
20207;SDS011;10263;48.716;8.760;2023-05-14T08:32:47;6.60;;;5.93;;
20207;SDS011;10263;48.716;8.760;2023-05-14T08:35:14;7.90;;;6.88;;
20207;SDS011;10263;48.716;8.760;2023-05-14T08:37:41;8.02;;;5.88;;
20207;SDS011;10263;48.716;8.760;2023-05-14T08:40:08;6.55;;;5.95;;
20207;SDS011;10263;48.716;8.760;2023-05-14T08:42:35;9.00;;;6.45;;
20207;SDS011;10263;48.716;8.760;2023-05-14T08:45:06;8.05;;;7.07;;
20207;SDS011;10263;48.716;8.760;2023-05-14T08:47:37;6.90;;;6.20;;
20207;SDS011;10263;48.716;8.760;2023-05-14T08:50:05;6.65;;;5.85;;
20207;SDS011;10263;48.716;8.760;2023-05-14T08:52:33;6.35;;;5.75;;
20207;SDS011;10263;48.716;8.760;2023-05-14T08:55:01;6.53;;;5.72;;
20207;SDS011;10263;48.716;8.760;2023-05-14T08:57:29;6.03;;;5.43;;
20207;SDS011;10263;48.716;8.760;2023-05-14T08:59:58;7.47;;;5.95;;
20207;SDS011;10263;48.716;8.760;2023-05-14T09:02:26;9.00;;;6.13;;
20207;SDS011;10263;48.716;8.760;2023-05-14T09:04:57;6.90;;;5.90;;
20207;SDS011;10263;48.716;8.760;2023-05-14T09:07:25;6.50;;;5.25;;
20207;SDS011;10263;48.716;8.760;2023-05-14T09:09:52;5.50;;;5.00;;
20207;SDS011;10263;48.716;8.760;2023-05-14T09:12:20;6.95;;;5.10;;
20207;SDS011;10263;48.716;8.760;2023-05-14T09:14:48;5.70;;;5.00;;
20207;SDS011;10263;48.716;8.760;2023-05-14T09:17:15;5.20;;;4.70;;
20207;SDS011;10263;48.716;8.760;2023-05-14T09:19:42;5.53;;;5.00;;
20207;SDS011;10263;48.716;8.760;2023-05-14T09:22:13;5.40;;;4.90;;
20207;SDS011;10263;48.716;8.760;2023-05-14T09:24:42;5.10;;;4.70;;
20207;SDS011;10263;48.716;8.760;2023-05-14T09:27:13;6.68;;;5.43;;
20207;SDS011;10263;48.716;8.760;2023-05-14T09:29:44;5.15;;;4.68;;
20207;SDS011;10263;48.716;8.760;2023-05-14T09:32:10;5.68;;;5.07;;
20207;SDS011;10263;48.716;8.760;2023-05-14T09:34:37;5.93;;;4.95;;
20207;SDS011;10263;48.716;8.760;2023-05-14T09:37:05;5.78;;;5.28;;
20207;SDS011;10263;48.716;8.760;2023-05-14T09:39:35;5.22;;;4.72;;
20207;SDS011;10263;48.716;8.760;2023-05-14T09:42:03;5.45;;;4.80;;
20207;SDS011;10263;48.716;8.760;2023-05-14T09:44:30;3.40;;;3.10;;
20207;SDS011;10263;48.716;8.760;2023-05-14T09:46:57;3.95;;;3.60;;
20207;SDS011;10263;48.716;8.760;2023-05-14T09:49:24;4.03;;;3.33;;
20207;SDS011;10263;48.716;8.760;2023-05-14T09:51:50;4.00;;;3.03;;
20207;SDS011;10263;48.716;8.760;2023-05-14T09:54:17;4.35;;;3.33;;
20207;SDS011;10263;48.716;8.760;2023-05-14T09:56:45;3.92;;;3.53;;
20207;SDS011;10263;48.716;8.760;2023-05-14T09:59:12;3.60;;;3.30;;
20207;SDS011;10263;48.716;8.760;2023-05-14T10:01:39;4.03;;;3.58;;
20207;SDS011;10263;48.716;8.760;2023-05-14T10:04:08;2.80;;;2.60;;
20207;SDS011;10263;48.716;8.760;2023-05-14T10:06:36;3.13;;;2.92;;
20207;SDS011;10263;48.716;8.760;2023-05-14T10:09:04;3.60;;;3.28;;
20207;SDS011;10263;48.716;8.760;2023-05-14T10:11:37;3.17;;;2.88;;
20207;SDS011;10263;48.716;8.760;2023-05-14T10:14:10;3.00;;;2.80;;
20207;SDS011;10263;48.716;8.760;2023-05-14T10:16:42;3.35;;;3.05;;
20207;SDS011;10263;48.716;8.760;2023-05-14T10:19:13;2.70;;;2.50;;
20207;SDS011;10263;48.716;8.760;2023-05-14T10:21:42;3.60;;;2.95;;
20207;SDS011;10263;48.716;8.760;2023-05-14T10:24:10;4.88;;;2.90;;
20207;SDS011;10263;48.716;8.760;2023-05-14T10:26:38;3.95;;;3.40;;
20207;SDS011;10263;48.716;8.760;2023-05-14T10:29:06;3.58;;;3.28;;
20207;SDS011;10263;48.716;8.760;2023-05-14T10:31:45;3.80;;;3.50;;
20207;SDS011;10263;48.716;8.760;2023-05-14T10:34:29;4.07;;;3.40;;
20207;SDS011;10263;48.716;8.760;2023-05-14T10:36:57;4.60;;;3.95;;
20207;SDS011;10263;48.716;8.760;2023-05-14T10:39:38;3.83;;;3.53;;
20207;SDS011;10263;48.716;8.760;2023-05-14T10:42:06;3.45;;;3.15;;
20207;SDS011;10263;48.716;8.760;2023-05-14T10:44:37;3.58;;;3.28;;
20207;SDS011;10263;48.716;8.760;2023-05-14T10:47:10;3.45;;;3.15;;
20207;SDS011;10263;48.716;8.760;2023-05-14T10:49:37;3.45;;;3.10;;
20207;SDS011;10263;48.716;8.760;2023-05-14T10:52:06;3.83;;;3.35;;
20207;SDS011;10263;48.716;8.760;2023-05-14T10:54:34;3.05;;;2.85;;
20207;SDS011;10263;48.716;8.760;2023-05-14T10:57:01;3.95;;;3.53;;
20207;SDS011;10263;48.716;8.760;2023-05-14T10:59:29;3.40;;;3.10;;
20207;SDS011;10263;48.716;8.760;2023-05-14T11:02:00;4.05;;;3.17;;
20207;SDS011;10263;48.716;8.760;2023-05-14T11:04:30;3.53;;;3.25;;
20207;SDS011;10263;48.716;8.760;2023-05-14T11:06:57;4.05;;;3.50;;
20207;SDS011;10263;48.716;8.760;2023-05-14T11:09:25;3.90;;;3.17;;
20207;SDS011;10263;48.716;8.760;2023-05-14T11:11:52;4.32;;;3.92;;
20207;SDS011;10263;48.716;8.760;2023-05-14T11:14:19;3.72;;;3.42;;
20207;SDS011;10263;48.716;8.760;2023-05-14T11:16:46;3.55;;;3.20;;
20207;SDS011;10263;48.716;8.760;2023-05-14T11:19:14;3.90;;;3.38;;
20207;SDS011;10263;48.716;8.760;2023-05-14T11:21:46;3.90;;;3.45;;
20207;SDS011;10263;48.716;8.760;2023-05-14T11:24:13;2.83;;;2.63;;
20207;SDS011;10263;48.716;8.760;2023-05-14T11:26:39;3.28;;;3.08;;
20207;SDS011;10263;48.716;8.760;2023-05-14T11:29:06;3.22;;;2.92;;
20207;SDS011;10263;48.716;8.760;2023-05-14T11:31:33;3.85;;;3.03;;
20207;SDS011;10263;48.716;8.760;2023-05-14T11:34:01;3.40;;;3.10;;
20207;SDS011;10263;48.716;8.760;2023-05-14T11:36:31;3.03;;;2.72;;
20207;SDS011;10263;48.716;8.760;2023-05-14T11:38:58;2.72;;;2.53;;
20207;SDS011;10263;48.716;8.760;2023-05-14T11:41:24;2.80;;;2.60;;
20207;SDS011;10263;48.716;8.760;2023-05-14T11:43:52;3.10;;;2.63;;
20207;SDS011;10263;48.716;8.760;2023-05-14T11:46:19;3.03;;;2.72;;
20207;SDS011;10263;48.716;8.760;2023-05-14T11:48:46;2.63;;;2.33;;
20207;SDS011;10263;48.716;8.760;2023-05-14T11:51:13;2.78;;;2.58;;
20207;SDS011;10263;48.716;8.760;2023-05-14T11:53:41;2.78;;;2.58;;
20207;SDS011;10263;48.716;8.760;2023-05-14T11:56:10;3.20;;;2.90;;
20207;SDS011;10263;48.716;8.760;2023-05-14T11:58:37;3.67;;;3.38;;
20207;SDS011;10263;48.716;8.760;2023-05-14T12:01:04;3.55;;;3.25;;
20207;SDS011;10263;48.716;8.760;2023-05-14T12:03:30;2.88;;;2.67;;
20207;SDS011;10263;48.716;8.760;2023-05-14T12:05:58;3.70;;;3.40;;
20207;SDS011;10263;48.716;8.760;2023-05-14T12:08:26;4.45;;;3.33;;
20207;SDS011;10263;48.716;8.760;2023-05-14T12:10:56;3.13;;;2.92;;
20207;SDS011;10263;48.716;8.760;2023-05-14T12:13:24;4.07;;;3.67;;
20207;SDS011;10263;48.716;8.760;2023-05-14T12:15:52;3.58;;;3.25;;
20207;SDS011;10263;48.716;8.760;2023-05-14T12:18:20;3.90;;;3.60;;
20207;SDS011;10263;48.716;8.760;2023-05-14T12:20:47;5.00;;;3.80;;
20207;SDS011;10263;48.716;8.760;2023-05-14T12:23:15;3.80;;;3.50;;
20207;SDS011;10263;48.716;8.760;2023-05-14T12:25:48;3.40;;;3.10;;
20207;SDS011;10263;48.716;8.760;2023-05-14T12:28:17;3.92;;;3.58;;
20207;SDS011;10263;48.716;8.760;2023-05-14T12:30:44;3.70;;;3.40;;
20207;SDS011;10263;48.716;8.760;2023-05-14T12:33:11;3.25;;;2.95;;
20207;SDS011;10263;48.716;8.760;2023-05-14T12:35:38;3.30;;;3.00;;
20207;SDS011;10263;48.716;8.760;2023-05-14T12:38:05;3.33;;;3.00;;
20207;SDS011;10263;48.716;8.760;2023-05-14T12:40:32;3.03;;;2.72;;
20207;SDS011;10263;48.716;8.760;2023-05-14T12:42:59;2.88;;;2.65;;
20207;SDS011;10263;48.716;8.760;2023-05-14T12:45:27;3.63;;;2.60;;
20207;SDS011;10263;48.716;8.760;2023-05-14T12:47:55;2.55;;;2.35;;
20207;SDS011;10263;48.716;8.760;2023-05-14T12:50:22;2.28;;;2.10;;
20207;SDS011;10263;48.716;8.760;2023-05-14T12:52:48;3.75;;;2.92;;
20207;SDS011;10263;48.716;8.760;2023-05-14T12:55:15;2.88;;;2.67;;
20207;SDS011;10263;48.716;8.760;2023-05-14T12:57:42;7.85;;;6.97;;
20207;SDS011;10263;48.716;8.760;2023-05-14T13:00:09;2.97;;;2.50;;
20207;SDS011;10263;48.716;8.760;2023-05-14T13:02:38;2.90;;;2.70;;
20207;SDS011;10263;48.716;8.760;2023-05-14T13:05:04;3.53;;;2.78;;
20207;SDS011;10263;48.716;8.760;2023-05-14T13:07:32;12.68;;;3.35;;
20207;SDS011;10263;48.716;8.760;2023-05-14T13:09:58;2.80;;;2.60;;
20207;SDS011;10263;48.716;8.760;2023-05-14T13:12:25;2.72;;;2.50;;
20207;SDS011;10263;48.716;8.760;2023-05-14T13:14:52;3.00;;;2.80;;
20207;SDS011;10263;48.716;8.760;2023-05-14T13:17:19;4.55;;;4.15;;
20207;SDS011;10263;48.716;8.760;2023-05-14T13:19:47;3.60;;;3.30;;
20207;SDS011;10263;48.716;8.760;2023-05-14T13:22:14;4.22;;;3.83;;
20207;SDS011;10263;48.716;8.760;2023-05-14T13:24:42;3.85;;;3.55;;
20207;SDS011;10263;48.716;8.760;2023-05-14T13:27:10;4.13;;;3.83;;
20207;SDS011;10263;48.716;8.760;2023-05-14T13:29:37;4.10;;;3.80;;
20207;SDS011;10263;48.716;8.760;2023-05-14T13:32:04;3.92;;;3.63;;
20207;SDS011;10263;48.716;8.760;2023-05-14T13:34:31;3.70;;;3.40;;
20207;SDS011;10263;48.716;8.760;2023-05-14T13:36:59;4.25;;;3.85;;
20207;SDS011;10263;48.716;8.760;2023-05-14T13:39:26;4.38;;;3.97;;
20207;SDS011;10263;48.716;8.760;2023-05-14T13:41:53;4.72;;;3.42;;
20207;SDS011;10263;48.716;8.760;2023-05-14T13:44:21;4.18;;;3.78;;
20207;SDS011;10263;48.716;8.760;2023-05-14T13:46:47;3.45;;;3.15;;
20207;SDS011;10263;48.716;8.760;2023-05-14T13:49:14;3.17;;;2.92;;
20207;SDS011;10263;48.716;8.760;2023-05-14T13:51:41;3.45;;;2.63;;
20207;SDS011;10263;48.716;8.760;2023-05-14T13:54:09;2.90;;;2.70;;
20207;SDS011;10263;48.716;8.760;2023-05-14T13:56:36;3.20;;;2.90;;
20207;SDS011;10263;48.716;8.760;2023-05-14T13:59:04;2.95;;;2.72;;
20207;SDS011;10263;48.716;8.760;2023-05-14T14:01:31;3.03;;;2.78;;
20207;SDS011;10263;48.716;8.760;2023-05-14T14:03:58;5.50;;;3.03;;
20207;SDS011;10263;48.716;8.760;2023-05-14T14:06:25;3.70;;;2.90;;
20207;SDS011;10263;48.716;8.760;2023-05-14T14:08:52;2.67;;;2.47;;
20207;SDS011;10263;48.716;8.760;2023-05-14T14:11:20;2.00;;;1.90;;
20207;SDS011;10263;48.716;8.760;2023-05-14T14:13:47;2.10;;;1.90;;
20207;SDS011;10263;48.716;8.760;2023-05-14T14:16:13;2.05;;;1.83;;
20207;SDS011;10263;48.716;8.760;2023-05-14T14:18:40;1.75;;;1.65;;
20207;SDS011;10263;48.716;8.760;2023-05-14T14:21:07;2.60;;;2.40;;
20207;SDS011;10263;48.716;8.760;2023-05-14T14:23:35;2.33;;;2.13;;
20207;SDS011;10263;48.716;8.760;2023-05-14T14:26:01;2.63;;;2.42;;
20207;SDS011;10263;48.716;8.760;2023-05-14T14:28:30;2.97;;;2.35;;
20207;SDS011;10263;48.716;8.760;2023-05-14T14:30:57;3.08;;;2.78;;
20207;SDS011;10263;48.716;8.760;2023-05-14T14:33:24;3.40;;;3.10;;
20207;SDS011;10263;48.716;8.760;2023-05-14T14:35:51;3.08;;;2.85;;
20207;SDS011;10263;48.716;8.760;2023-05-14T14:38:17;3.10;;;2.90;;
20207;SDS011;10263;48.716;8.760;2023-05-14T14:40:44;5.47;;;4.32;;
20207;SDS011;10263;48.716;8.760;2023-05-14T14:43:11;9.23;;;6.25;;
20207;SDS011;10263;48.716;8.760;2023-05-14T14:45:39;4.03;;;3.63;;
20207;SDS011;10263;48.716;8.760;2023-05-14T14:48:22;5.57;;;4.45;;
20207;SDS011;10263;48.716;8.760;2023-05-14T14:50:52;9.23;;;7.53;;